Aviation Digital Data Service (ADDS)

Output produced by METARs form (0154 UTC 22 February 2019)
found at http://www.aviationweather.gov/metar/data/
 
METAR text: HELX 220100Z 00000KT CAVOK 11/03 Q1017 NOSIG
Conditions at: HELX (LUXOR (CIV/MIL) , EG) observed 0100 UTC 22 February 2019
Temperature: 11.0°C (52°F)
Dewpoint: 3.0°C (37°F) [RH = 58%]
Pressure (altimeter): 30.03 inches Hg (1017.0 mb)
Winds: calm
Visibility: 6 or more miles (10+ km)
Ceiling: ceiling and visibility are OK
Clouds: unknown
Weather: no significant weather observed at this time

METAR text: HELX 220000Z 00000KT CAVOK 12/04 Q1017 NOSIG
Conditions at: HELX (LUXOR (CIV/MIL) , EG) observed 0000 UTC 22 February 2019
Temperature: 12.0°C (54°F)
Dewpoint: 4.0°C (39°F) [RH = 58%]
Pressure (altimeter): 30.03 inches Hg (1017.0 mb)
Winds: calm
Visibility: 6 or more miles (10+ km)
Ceiling: ceiling and visibility are OK
Clouds: unknown
Weather: no significant weather observed at this time

METAR text: HELX 212300Z 00000KT CAVOK 13/05 Q1017 NOSIG
Conditions at: HELX (LUXOR (CIV/MIL) , EG) observed 2300 UTC 21 February 2019
Temperature: 13.0°C (55°F)
Dewpoint: 5.0°C (41°F) [RH = 58%]
Pressure (altimeter): 30.03 inches Hg (1017.0 mb)
Winds: calm
Visibility: 6 or more miles (10+ km)
Ceiling: ceiling and visibility are OK
Clouds: unknown
Weather: no significant weather observed at this time

METAR text: HELX 212200Z 13002KT CAVOK 14/05 Q1018 NOSIG
Conditions at: HELX (LUXOR (CIV/MIL) , EG) observed 2200 UTC 21 February 2019
Temperature: 14.0°C (57°F)
Dewpoint: 5.0°C (41°F) [RH = 55%]
Pressure (altimeter): 30.06 inches Hg (1018.0 mb)
Winds: from the SE (130 degrees) at 2 MPH (2 knots; 1.0 m/s)
Visibility: 6 or more miles (10+ km)
Ceiling: ceiling and visibility are OK
Clouds: unknown
Weather: no significant weather observed at this time

METAR text: HELX 212100Z 15002KT CAVOK 15/05 Q1018 NOSIG
Conditions at: HELX (LUXOR (CIV/MIL) , EG) observed 2100 UTC 21 February 2019
Temperature: 15.0°C (59°F)
Dewpoint: 5.0°C (41°F) [RH = 51%]
Pressure (altimeter): 30.06 inches Hg (1018.0 mb)
Winds: from the SSE (150 degrees) at 2 MPH (2 knots; 1.0 m/s)
Visibility: 6 or more miles (10+ km)
Ceiling: ceiling and visibility are OK
Clouds: unknown
Weather: no significant weather observed at this time

METAR text: HELX 212000Z 18002KT CAVOK 16/05 Q1018 NOSIG
Conditions at: HELX (LUXOR (CIV/MIL) , EG) observed 2000 UTC 21 February 2019
Temperature: 16.0°C (61°F)
Dewpoint: 5.0°C (41°F) [RH = 48%]
Pressure (altimeter): 30.06 inches Hg (1018.0 mb)
Winds: from the S (180 degrees) at 2 MPH (2 knots; 1.0 m/s)
Visibility: 6 or more miles (10+ km)
Ceiling: ceiling and visibility are OK
Clouds: unknown
Weather: no significant weather observed at this time

METAR text: HELX 211900Z 23004KT CAVOK 17/05 Q1018 NOSIG
Conditions at: HELX (LUXOR (CIV/MIL) , EG) observed 1900 UTC 21 February 2019
Temperature: 17.0°C (63°F)
Dewpoint: 5.0°C (41°F) [RH = 45%]
Pressure (altimeter): 30.06 inches Hg (1018.0 mb)
Winds: from the SW (230 degrees) at 5 MPH (4 knots; 2.1 m/s)
Visibility: 6 or more miles (10+ km)
Ceiling: ceiling and visibility are OK
Clouds: unknown
Weather: no significant weather observed at this time

METAR text: HELX 211800Z 28004KT CAVOK 18/06 Q1018 NOSIG
Conditions at: HELX (LUXOR (CIV/MIL) , EG) observed 1800 UTC 21 February 2019
Temperature: 18.0°C (64°F)
Dewpoint: 6.0°C (43°F) [RH = 45%]
Pressure (altimeter): 30.06 inches Hg (1018.0 mb)
Winds: from the W (280 degrees) at 5 MPH (4 knots; 2.1 m/s)
Visibility: 6 or more miles (10+ km)
Ceiling: ceiling and visibility are OK
Clouds: unknown
Weather: no significant weather observed at this time

METAR text: HELX 211700Z 29004KT CAVOK 19/05 Q1017 NOSIG
Conditions at: HELX (LUXOR (CIV/MIL) , EG) observed 1700 UTC 21 February 2019
Temperature: 19.0°C (66°F)
Dewpoint: 5.0°C (41°F) [RH = 40%]
Pressure (altimeter): 30.03 inches Hg (1017.0 mb)
Winds: from the WNW (290 degrees) at 5 MPH (4 knots; 2.1 m/s)
Visibility: 6 or more miles (10+ km)
Ceiling: ceiling and visibility are OK
Clouds: unknown
Weather: no significant weather observed at this time

METAR text: HELX 211600Z 31002KT CAVOK 21/04 Q1016 NOSIG
Conditions at: HELX (LUXOR (CIV/MIL) , EG) observed 1600 UTC 21 February 2019
Temperature: 21.0°C (70°F)
Dewpoint: 4.0°C (39°F) [RH = 33%]
Pressure (altimeter): 30.00 inches Hg (1016.0 mb)
Winds: from the NW (310 degrees) at 2 MPH (2 knots; 1.0 m/s)
Visibility: 6 or more miles (10+ km)
Ceiling: ceiling and visibility are OK
Clouds: unknown
Weather: no significant weather observed at this time

METAR text: HELX 211500Z 33002KT CAVOK 24/04 Q1016 NOSIG
Conditions at: HELX (LUXOR (CIV/MIL) , EG) observed 1500 UTC 21 February 2019
Temperature: 24.0°C (75°F)
Dewpoint: 4.0°C (39°F) [RH = 27%]
Pressure (altimeter): 30.00 inches Hg (1016.0 mb)
Winds: from the NNW (330 degrees) at 2 MPH (2 knots; 1.0 m/s)
Visibility: 6 or more miles (10+ km)
Ceiling: ceiling and visibility are OK
Clouds: unknown
Weather: no significant weather observed at this time

METAR text: HELX 211400Z 32005KT CAVOK 24/04 Q1016 NOSIG
Conditions at: HELX (LUXOR (CIV/MIL) , EG) observed 1400 UTC 21 February 2019
Temperature: 24.0°C (75°F)
Dewpoint: 4.0°C (39°F) [RH = 27%]
Pressure (altimeter): 30.00 inches Hg (1016.0 mb)
Winds: from the NW (320 degrees) at 6 MPH (5 knots; 2.6 m/s)
Visibility: 6 or more miles (10+ km)
Ceiling: ceiling and visibility are OK
Clouds: unknown
Weather: no significant weather observed at this time

METAR text: HELX 211300Z 32004KT CAVOK 25/03 Q1016 NOSIG
Conditions at: HELX (LUXOR (CIV/MIL) , EG) observed 1300 UTC 21 February 2019
Temperature: 25.0°C (77°F)
Dewpoint: 3.0°C (37°F) [RH = 24%]
Pressure (altimeter): 30.00 inches Hg (1016.0 mb)
Winds: from the NW (320 degrees) at 5 MPH (4 knots; 2.1 m/s)
Visibility: 6 or more miles (10+ km)
Ceiling: ceiling and visibility are OK
Clouds: unknown
Weather: no significant weather observed at this time

METAR text: HELX 211200Z 02033KT CAVOK 25/04 Q1017 NOSIG
Conditions at: HELX (LUXOR (CIV/MIL) , EG) observed 1200 UTC 21 February 2019
Temperature: 25.0°C (77°F)
Dewpoint: 4.0°C (39°F) [RH = 26%]
Pressure (altimeter): 30.03 inches Hg (1017.0 mb)
Winds: from the NNE (20 degrees) at 38 MPH (33 knots; 17.0 m/s)
Visibility: 6 or more miles (10+ km)
Ceiling: ceiling and visibility are OK
Clouds: unknown
Weather: no significant weather observed at this time

METAR text: HELX 211100Z 32003KT CAVOK 23/05 Q1017 NOSIG
Conditions at: HELX (LUXOR (CIV/MIL) , EG) observed 1100 UTC 21 February 2019
Temperature: 23.0°C (73°F)
Dewpoint: 5.0°C (41°F) [RH = 31%]
Pressure (altimeter): 30.03 inches Hg (1017.0 mb)
Winds: from the NW (320 degrees) at 3 MPH (3 knots; 1.5 m/s)
Visibility: 6 or more miles (10+ km)
Ceiling: ceiling and visibility are OK
Clouds: unknown
Weather: no significant weather observed at this time

METAR text: HELX 211000Z 00000KT 6000 NSC 22/05 Q1018 NOSIG
Conditions at: HELX (LUXOR (CIV/MIL) , EG) observed 1000 UTC 21 February 2019
Temperature: 22.0°C (72°F)
Dewpoint: 5.0°C (41°F) [RH = 33%]
Pressure (altimeter): 30.06 inches Hg (1018.0 mb)
Winds: calm
Visibility: 4 miles ( 6 km)
Ceiling: at least 12,000 feet AGL
Clouds: sky clear below 12,000 feet AGL
Weather: no significant weather observed at this time

METAR text: HELX 210900Z 00000KT 6000 NSC 21/06 Q1019 NOSIG
Conditions at: HELX (LUXOR (CIV/MIL) , EG) observed 0900 UTC 21 February 2019
Temperature: 21.0°C (70°F)
Dewpoint: 6.0°C (43°F) [RH = 38%]
Pressure (altimeter): 30.09 inches Hg (1019.0 mb)
Winds: calm
Visibility: 4 miles ( 6 km)
Ceiling: at least 12,000 feet AGL
Clouds: sky clear below 12,000 feet AGL
Weather: no significant weather observed at this time

METAR text: HELX 210800Z 00000KT 4000 HZ NSC 18/04 Q1020 NOSIG
Conditions at: HELX (LUXOR (CIV/MIL) , EG) observed 0800 UTC 21 February 2019
Temperature: 18.0°C (64°F)
Dewpoint: 4.0°C (39°F) [RH = 39%]
Pressure (altimeter): 30.12 inches Hg (1020.0 mb)
Winds: calm
Visibility: 2.49 miles (4.01 km)
Ceiling: at least 12,000 feet AGL
Clouds: sky clear below 12,000 feet AGL
Weather: HZ  (haze)

METAR text: HELX 210700Z 08002KT 4000 HZ NSC 15/04 Q1020 NOSIG
Conditions at: HELX (LUXOR (CIV/MIL) , EG) observed 0700 UTC 21 February 2019
Temperature: 15.0°C (59°F)
Dewpoint: 4.0°C (39°F) [RH = 48%]
Pressure (altimeter): 30.12 inches Hg (1020.0 mb)
Winds: from the E (80 degrees) at 2 MPH (2 knots; 1.0 m/s)
Visibility: 2.49 miles (4.01 km)
Ceiling: at least 12,000 feet AGL
Clouds: sky clear below 12,000 feet AGL
Weather: HZ  (haze)

METAR text: HELX 210600Z 00000KT 6000 NSC 13/02 Q1020 NOSIG
Conditions at: HELX (LUXOR (CIV/MIL) , EG) observed 0600 UTC 21 February 2019
Temperature: 13.0°C (55°F)
Dewpoint: 2.0°C (36°F) [RH = 47%]
Pressure (altimeter): 30.12 inches Hg (1020.0 mb)
Winds: calm
Visibility: 4 miles ( 6 km)
Ceiling: at least 12,000 feet AGL
Clouds: sky clear below 12,000 feet AGL
Weather: no significant weather observed at this time

METAR text: HELX 210500Z 00000KT 6000 NSC 10/01 Q1019 NOSIG
Conditions at: HELX (LUXOR (CIV/MIL) , EG) observed 0500 UTC 21 February 2019
Temperature: 10.0°C (50°F)
Dewpoint: 1.0°C (34°F) [RH = 53%]
Pressure (altimeter): 30.09 inches Hg (1019.0 mb)
Winds: calm
Visibility: 4 miles ( 6 km)
Ceiling: at least 12,000 feet AGL
Clouds: sky clear below 12,000 feet AGL
Weather: no significant weather observed at this time

METAR text: HELX 210400Z 00000KT 8000 NSC 11/03 Q1018 NOSIG
Conditions at: HELX (LUXOR (CIV/MIL) , EG) observed 0400 UTC 21 February 2019
Temperature: 11.0°C (52°F)
Dewpoint: 3.0°C (37°F) [RH = 58%]
Pressure (altimeter): 30.06 inches Hg (1018.0 mb)
Winds: calm
Visibility: 5 miles ( 8 km)
Ceiling: at least 12,000 feet AGL
Clouds: sky clear below 12,000 feet AGL
Weather: no significant weather observed at this time

METAR text: HELX 210300Z 00000KT 8000 NSC 12/02 Q1018 NOSIG
Conditions at: HELX (LUXOR (CIV/MIL) , EG) observed 0300 UTC 21 February 2019
Temperature: 12.0°C (54°F)
Dewpoint: 2.0°C (36°F) [RH = 50%]
Pressure (altimeter): 30.06 inches Hg (1018.0 mb)
Winds: calm
Visibility: 5 miles ( 8 km)
Ceiling: at least 12,000 feet AGL
Clouds: sky clear below 12,000 feet AGL
Weather: no significant weather observed at this time

METAR text: HELX 210200Z 00000KT CAVOK 11/03 Q1018 NOSIG
Conditions at: HELX (LUXOR (CIV/MIL) , EG) observed 0200 UTC 21 February 2019
Temperature: 11.0°C (52°F)
Dewpoint: 3.0°C (37°F) [RH = 58%]
Pressure (altimeter): 30.06 inches Hg (1018.0 mb)
Winds: calm
Visibility: 6 or more miles (10+ km)
Ceiling: ceiling and visibility are OK
Clouds: unknown
Weather: no significant weather observed at this time

METAR text: HELX 210100Z 00000KT CAVOK 12/03 Q1018 NOSIG
Conditions at: HELX (LUXOR (CIV/MIL) , EG) observed 0100 UTC 21 February 2019
Temperature: 12.0°C (54°F)
Dewpoint: 3.0°C (37°F) [RH = 54%]
Pressure (altimeter): 30.06 inches Hg (1018.0 mb)
Winds: calm
Visibility: 6 or more miles (10+ km)
Ceiling: ceiling and visibility are OK
Clouds: unknown
Weather: no significant weather observed at this time

METAR text: HELX 210000Z 00000KT CAVOK 13/03 Q1018 NOSIG
Conditions at: HELX (LUXOR (CIV/MIL) , EG) observed 0000 UTC 21 February 2019
Temperature: 13.0°C (55°F)
Dewpoint: 3.0°C (37°F) [RH = 51%]
Pressure (altimeter): 30.06 inches Hg (1018.0 mb)
Winds: calm
Visibility: 6 or more miles (10+ km)
Ceiling: ceiling and visibility are OK
Clouds: unknown
Weather: no significant weather observed at this time

METAR text: HELX 202300Z 00000KT CAVOK 15/03 Q1018 NOSIG
Conditions at: HELX (LUXOR (CIV/MIL) , EG) observed 2300 UTC 20 February 2019
Temperature: 15.0°C (59°F)
Dewpoint: 3.0°C (37°F) [RH = 44%]
Pressure (altimeter): 30.06 inches Hg (1018.0 mb)
Winds: calm
Visibility: 6 or more miles (10+ km)
Ceiling: ceiling and visibility are OK
Clouds: unknown
Weather: no significant weather observed at this time

METAR text: HELX 202200Z 16004KT CAVOK 14/01 Q1018 NOSIG
Conditions at: HELX (LUXOR (CIV/MIL) , EG) observed 2200 UTC 20 February 2019
Temperature: 14.0°C (57°F)
Dewpoint: 1.0°C (34°F) [RH = 41%]
Pressure (altimeter): 30.06 inches Hg (1018.0 mb)
Winds: from the SSE (160 degrees) at 5 MPH (4 knots; 2.1 m/s)
Visibility: 6 or more miles (10+ km)
Ceiling: ceiling and visibility are OK
Clouds: unknown
Weather: no significant weather observed at this time

METAR text: HELX 202100Z 00000KT CAVOK 15/01 Q1018 NOSIG
Conditions at: HELX (LUXOR (CIV/MIL) , EG) observed 2100 UTC 20 February 2019
Temperature: 15.0°C (59°F)
Dewpoint: 1.0°C (34°F) [RH = 39%]
Pressure (altimeter): 30.06 inches Hg (1018.0 mb)
Winds: calm
Visibility: 6 or more miles (10+ km)
Ceiling: ceiling and visibility are OK
Clouds: unknown
Weather: no significant weather observed at this time

METAR text: HELX 202000Z 00000KT CAVOK 14/04 Q1018 NOSIG
Conditions at: HELX (LUXOR (CIV/MIL) , EG) observed 2000 UTC 20 February 2019
Temperature: 14.0°C (57°F)
Dewpoint: 4.0°C (39°F) [RH = 51%]
Pressure (altimeter): 30.06 inches Hg (1018.0 mb)
Winds: calm
Visibility: 6 or more miles (10+ km)
Ceiling: ceiling and visibility are OK
Clouds: unknown
Weather: no significant weather observed at this time

METAR text: HELX 201900Z 00000KT CAVOK 16/03 Q1019 NOSIG
Conditions at: HELX (LUXOR (CIV/MIL) , EG) observed 1900 UTC 20 February 2019
Temperature: 16.0°C (61°F)
Dewpoint: 3.0°C (37°F) [RH = 42%]
Pressure (altimeter): 30.09 inches Hg (1019.0 mb)
Winds: calm
Visibility: 6 or more miles (10+ km)
Ceiling: ceiling and visibility are OK
Clouds: unknown
Weather: no significant weather observed at this time

METAR text: HELX 201800Z 00000KT CAVOK 17/05 Q1018 NOSIG
Conditions at: HELX (LUXOR (CIV/MIL) , EG) observed 1800 UTC 20 February 2019
Temperature: 17.0°C (63°F)
Dewpoint: 5.0°C (41°F) [RH = 45%]
Pressure (altimeter): 30.06 inches Hg (1018.0 mb)
Winds: calm
Visibility: 6 or more miles (10+ km)
Ceiling: ceiling and visibility are OK
Clouds: unknown
Weather: no significant weather observed at this time

METAR text: HELX 201700Z 01002KT CAVOK 20/04 Q1017 NOSIG
Conditions at: HELX (LUXOR (CIV/MIL) , EG) observed 1700 UTC 20 February 2019
Temperature: 20.0°C (68°F)
Dewpoint: 4.0°C (39°F) [RH = 35%]
Pressure (altimeter): 30.03 inches Hg (1017.0 mb)
Winds: from the N (10 degrees) at 2 MPH (2 knots; 1.0 m/s)
Visibility: 6 or more miles (10+ km)
Ceiling: ceiling and visibility are OK
Clouds: unknown
Weather: no significant weather observed at this time

METAR text: HELX 201600Z 00000KT CAVOK 21/03 Q1017 NOSIG
Conditions at: HELX (LUXOR (CIV/MIL) , EG) observed 1600 UTC 20 February 2019
Temperature: 21.0°C (70°F)
Dewpoint: 3.0°C (37°F) [RH = 30%]
Pressure (altimeter): 30.03 inches Hg (1017.0 mb)
Winds: calm
Visibility: 6 or more miles (10+ km)
Ceiling: ceiling and visibility are OK
Clouds: unknown
Weather: no significant weather observed at this time

METAR text: HELX 201500Z 00000KT CAVOK 23/04 Q1017 NOSIG
Conditions at: HELX (LUXOR (CIV/MIL) , EG) observed 1500 UTC 20 February 2019
Temperature: 23.0°C (73°F)
Dewpoint: 4.0°C (39°F) [RH = 29%]
Pressure (altimeter): 30.03 inches Hg (1017.0 mb)
Winds: calm
Visibility: 6 or more miles (10+ km)
Ceiling: ceiling and visibility are OK
Clouds: unknown
Weather: no significant weather observed at this time

METAR text: HELX 201400Z 36002KT CAVOK 23/05 Q1018
Conditions at: HELX (LUXOR (CIV/MIL) , EG) observed 1400 UTC 20 February 2019
Temperature: 23.0°C (73°F)
Dewpoint: 5.0°C (41°F) [RH = 31%]
Pressure (altimeter): 30.06 inches Hg (1018.0 mb)
Winds: from the N (360 degrees) at 2 MPH (2 knots; 1.0 m/s)
Visibility: 6 or more miles (10+ km)
Ceiling: ceiling and visibility are OK
Clouds: unknown
Weather: no significant weather observed at this time

Forecast for: HELX (LUXOR (CIV/MIL) , EG)
Text: TAF HELX 212300Z 2200/2306 32008KT CAVOK
Forecast period: 0000 UTC 22 February 2019 to 0600 UTC 23 February 2019
Forecast type: FROM: standard forecast or significant change
Winds: from the NW (320 degrees) at 9 MPH (8 knots; 4.1 m/s)
Visibility: 6 or more miles 10+ km)
Ceiling: unknown
Clouds: missing
Weather: NSW  (no significant weather)
Text: TEMPO 2206/2212 3000 HZ NSC
Forecast period: 0600 to 1200 UTC 22 February 2019
Forecast type: TEMPORARY: The following changes expected for less than half the time period
Visibility: 1.86 miles (2.99 km)
Ceiling: unknown
Clouds: missing
Weather: HZ  (haze)